Time;durP1;ratioP1;P1;durP2;ratioP2;P2;SDS_P1;SDS_P2;PMS_P1;PMS_P2;Temp;Humidity;BMP_temperature;BMP_pressure;BME280_temperature;BME280_humidity;BME280_pressure;Samples;Min_cycle;Max_cycle;Signal;HPM_P1;HPM_P2
2022/12/01 00:02:01;;;;;;;181.45;20.45;;;;;;;;;;4977318;28;20089;-73
2022/12/01 00:04:27;;;;;;;206.95;21.40;;;;;;;;;;4987820;28;20046;-72
2022/12/01 00:06:52;;;;;;;141.13;18.58;;;;;;;;;;4984049;28;20023;-72
2022/12/01 00:12:01;;;;;;;101.03;16.45;;;;;;;;;;4983206;28;20129;-72
2022/12/01 00:14:27;;;;;;;63.80;14.30;;;;;;;;;;5008158;28;20483;-72
2022/12/01 00:16:52;;;;;;;67.40;14.80;;;;;;;;;;4987419;28;20030;-72
2022/12/01 00:19:17;;;;;;;58.20;14.05;;;;;;;;;;4992800;28;20045;-72
2022/12/01 00:21:44;;;;;;;66.93;13.65;;;;;;;;;;4980051;28;20041;-72
2022/12/01 00:24:10;;;;;;;82.90;12.95;;;;;;;;;;4985004;28;20121;-73
2022/12/01 00:26:36;;;;;;;124.00;14.65;;;;;;;;;;4979422;28;20030;-72
2022/12/01 00:29:02;;;;;;;67.68;12.90;;;;;;;;;;4981407;28;20049;-72
2022/12/01 00:31:27;;;;;;;85.32;13.85;;;;;;;;;;4984532;28;20042;-73
2022/12/01 00:33:53;;;;;;;53.65;12.95;;;;;;;;;;4991917;28;20382;-72
2022/12/01 00:36:19;;;;;;;92.82;13.70;;;;;;;;;;4980454;28;20058;-72
2022/12/01 00:38:45;;;;;;;96.53;13.30;;;;;;;;;;4976176;28;20050;-72
2022/12/01 00:41:10;;;;;;;201.23;18.23;;;;;;;;;;4979618;28;20034;-72
2022/12/01 00:43:36;;;;;;;102.75;14.70;;;;;;;;;;4976991;28;20042;-72
2022/12/01 00:46:01;;;;;;;129.50;17.35;;;;;;;;;;4984815;28;20493;-72
2022/12/01 00:48:27;;;;;;;90.85;15.23;;;;;;;;;;4977900;28;20050;-72
2022/12/01 00:50:53;;;;;;;50.78;12.95;;;;;;;;;;4986990;28;20386;-72
2022/12/01 00:53:19;;;;;;;62.55;13.90;;;;;;;;;;4982533;28;20046;-73
2022/12/01 00:55:45;;;;;;;54.90;13.18;;;;;;;;;;4987738;28;20018;-72
2022/12/01 00:58:10;;;;;;;80.38;14.27;;;;;;;;;;4987636;28;20066;-72
2022/12/01 01:00:39;;;;;;;50.92;12.40;;;;;;;;;;4986893;28;20042;-71
2022/12/01 01:03:05;;;;;;;64.75;12.98;;;;;;;;;;4981020;28;20030;-72
2022/12/01 01:05:34;;;;;;;76.75;12.57;;;;;;;;;;4978589;28;20027;-72
2022/12/01 01:08:00;;;;;;;75.47;11.48;;;;;;;;;;4986323;28;20093;-74
2022/12/01 01:10:25;;;;;;;97.00;11.75;;;;;;;;;;4978878;28;20039;-72
2022/12/01 01:12:50;;;;;;;52.67;10.13;;;;;;;;;;4979325;28;20397;-72
2022/12/01 01:15:16;;;;;;;62.08;10.43;;;;;;;;;;4982924;28;20108;-73
2022/12/01 01:17:41;;;;;;;60.65;10.32;;;;;;;;;;4985538;28;20488;-72
2022/12/01 01:20:07;;;;;;;85.85;11.52;;;;;;;;;;4982219;28;20081;-72
2022/12/01 01:22:34;;;;;;;120.15;9.77;;;;;;;;;;4989099;28;20043;-72
2022/12/01 01:24:59;;;;;;;113.95;10.75;;;;;;;;;;4973474;28;20030;-72
2022/12/01 01:27:24;;;;;;;66.53;9.00;;;;;;;;;;4982302;28;20493;-72
2022/12/01 01:29:50;;;;;;;62.17;9.68;;;;;;;;;;4979875;28;20060;-72
2022/12/01 01:32:15;;;;;;;137.60;11.50;;;;;;;;;;4985528;28;20482;-72
2022/12/01 01:34:40;;;;;;;123.55;10.95;;;;;;;;;;4979298;28;20080;-72
2022/12/01 01:37:06;;;;;;;76.97;9.95;;;;;;;;;;4987629;28;20483;-72
2022/12/01 01:39:31;;;;;;;88.43;9.27;;;;;;;;;;4979256;28;20031;-72
2022/12/01 01:41:56;;;;;;;63.10;8.65;;;;;;;;;;4979490;28;20110;-72
2022/12/01 01:44:54;;;;;;;72.53;9.27;;;;;;;;;;4978420;28;20467;-71
2022/12/01 01:47:42;;;;;;;113.80;9.48;;;;;;;;;;4970317;28;20075;-72
2022/12/01 01:50:11;;;;;;;140.15;10.43;;;;;;;;;;4979547;28;20070;-72
2022/12/01 01:52:50;;;;;;;112.50;10.20;;;;;;;;;;4975851;28;20111;-71
2022/12/01 01:55:16;;;;;;;175.68;10.20;;;;;;;;;;4976315;28;20054;-73
2022/12/01 01:57:43;;;;;;;140.55;11.05;;;;;;;;;;4979421;28;20045;-71
2022/12/01 02:00:17;;;;;;;124.13;10.25;;;;;;;;;;4980932;28;20050;-72
2022/12/01 02:02:45;;;;;;;79.95;9.07;;;;;;;;;;4988410;28;20038;-72
2022/12/01 02:05:14;;;;;;;87.63;10.70;;;;;;;;;;4966702;28;20047;-72
2022/12/01 02:07:40;;;;;;;88.05;9.05;;;;;;;;;;4988025;28;20062;-72
2022/12/01 02:10:11;;;;;;;118.00;11.02;;;;;;;;;;4984444;28;20128;-72
2022/12/01 02:12:46;;;;;;;63.95;9.45;;;;;;;;;;4976660;28;20141;-72
2022/12/01 02:15:41;;;;;;;73.20;7.10;;;;;;;;;;4980066;28;20048;-72
2022/12/01 02:18:41;;;;;;;;;;;;;;;;;;4968817;28;20054;-71
2022/12/01 02:21:18;;;;;;;49.42;8.35;;;;;;;;;;4969830;28;19968;-72
2022/12/01 02:24:22;;;;;;;61.75;9.35;;;;;;;;;;4987590;28;20104;-72
2022/12/01 02:26:50;;;;;;;35.38;7.65;;;;;;;;;;4988971;28;20054;-72
2022/12/01 02:29:25;;;;;;;45.28;9.55;;;;;;;;;;4978590;28;20039;-72
2022/12/01 02:32:12;;;;;;;67.30;8.75;;;;;;;;;;4989420;28;20042;-72
2022/12/01 02:35:01;;;;;;;39.55;9.40;;;;;;;;;;4987263;28;20042;-71
2022/12/01 02:37:35;;;;;;;56.30;8.60;;;;;;;;;;4979238;28;20551;-71
2022/12/01 02:40:25;;;;;;;48.88;9.00;;;;;;;;;;4984784;28;20101;-71
2022/12/01 02:43:01;;;;;;;71.18;10.30;;;;;;;;;;4985925;28;20035;-71
2022/12/01 02:45:33;;;;;;;94.25;10.05;;;;;;;;;;4980957;28;20110;-72
2022/12/01 02:48:01;;;;;;;52.67;9.32;;;;;;;;;;4979221;28;20051;-71
2022/12/01 02:50:28;;;;;;;49.60;9.68;;;;;;;;;;4990707;28;20034;-72
2022/12/01 02:52:54;;;;;;;200.10;15.52;;;;;;;;;;4978860;28;20045;-71
2022/12/01 02:55:20;;;;;;;82.38;10.70;;;;;;;;;;4984577;28;20050;-71
2022/12/01 02:57:45;;;;;;;162.85;11.65;;;;;;;;;;4980224;28;20065;-72
2022/12/01 03:00:12;;;;;;;90.03;10.60;;;;;;;;;;4989028;28;20035;-72
2022/12/01 03:02:49;;;;;;;58.67;10.48;;;;;;;;;;4986889;28;20438;-71
2022/12/01 03:05:41;;;;;;;55.50;9.23;;;;;;;;;;4985097;28;20038;-72
2022/12/01 03:08:28;;;;;;;53.55;8.98;;;;;;;;;;4985514;28;20394;-72
2022/12/01 03:10:56;;;;;;;114.53;11.05;;;;;;;;;;4991452;28;20121;-72
2022/12/01 03:13:39;;;;;;;53.90;9.27;;;;;;;;;;4989572;28;20042;-71
2022/12/01 03:16:11;;;;;;;36.35;8.13;;;;;;;;;;4985030;28;20550;-73
2022/12/01 03:18:53;;;;;;;49.42;9.15;;;;;;;;;;4983619;28;20066;-71
2022/12/01 03:21:40;;;;;;;40.22;9.30;;;;;;;;;;4980292;28;20138;-72
2022/12/01 03:24:20;;;;;;;38.20;8.57;;;;;;;;;;4976709;28;20479;-72
2022/12/01 03:26:48;;;;;;;48.42;8.77;;;;;;;;;;4975594;28;20121;-72
2022/12/01 03:29:19;;;;;;;46.38;9.55;;;;;;;;;;4986148;28;20042;-72
2022/12/01 03:31:48;;;;;;;78.82;11.00;;;;;;;;;;4980351;28;20554;-71
2022/12/01 03:34:15;;;;;;;48.33;9.20;;;;;;;;;;4987982;28;20042;-72
2022/12/01 03:36:47;;;;;;;48.58;9.00;;;;;;;;;;4986245;28;20081;-71
2022/12/01 03:39:17;;;;;;;72.57;10.25;;;;;;;;;;4980944;28;20798;-72
2022/12/01 03:41:49;;;;;;;48.67;9.05;;;;;;;;;;4985912;28;20121;-72
2022/12/01 03:44:20;;;;;;;49.80;9.98;;;;;;;;;;4982552;28;20023;-72
2022/12/01 03:46:49;;;;;;;32.42;9.23;;;;;;;;;;4977271;28;20158;-73
2022/12/01 03:49:16;;;;;;;40.83;9.98;;;;;;;;;;4976514;28;20042;-72
2022/12/01 03:52:09;;;;;;;64.55;10.02;;;;;;;;;;4990419;28;20038;-72
2022/12/01 03:54:35;;;;;;;50.55;9.60;;;;;;;;;;4986986;28;20394;-73
2022/12/01 03:57:04;;;;;;;40.45;9.20;;;;;;;;;;4978186;28;20038;-71
2022/12/01 03:59:34;;;;;;;48.83;9.98;;;;;;;;;;4984450;28;20069;-71
2022/12/01 04:01:59;;;;;;;82.50;11.02;;;;;;;;;;4981227;28;20046;-71
2022/12/01 04:04:25;;;;;;;156.82;13.10;;;;;;;;;;4981814;28;20039;-72
2022/12/01 04:06:50;;;;;;;50.75;9.48;;;;;;;;;;4982770;28;20038;-72
2022/12/01 04:09:16;;;;;;;35.58;8.73;;;;;;;;;;4977229;28;20114;-72
2022/12/01 04:14:25;;;;;;;25.27;8.13;;;;;;;;;;4981844;28;20077;-72
2022/12/01 04:16:50;;;;;;;69.78;9.80;;;;;;;;;;4985306;28;20479;-71
2022/12/01 04:19:16;;;;;;;103.88;11.27;;;;;;;;;;4980443;28;20077;-72
2022/12/01 04:21:41;;;;;;;71.13;9.15;;;;;;;;;;4981586;28;20035;-71
2022/12/01 04:24:07;;;;;;;83.00;9.88;;;;;;;;;;4981761;28;20071;-72
2022/12/01 04:26:35;;;;;;;90.78;10.85;;;;;;;;;;4984655;28;20074;-71
2022/12/01 04:29:03;;;;;;;73.97;9.82;;;;;;;;;;4984576;28;20383;-71
2022/12/01 04:31:29;;;;;;;70.45;9.63;;;;;;;;;;4983507;28;20060;-72
2022/12/01 04:33:55;;;;;;;97.28;10.88;;;;;;;;;;4980388;28;20165;-71
2022/12/01 04:36:21;;;;;;;88.28;10.68;;;;;;;;;;4982234;28;20058;-71
2022/12/01 04:38:47;;;;;;;68.28;10.18;;;;;;;;;;4982233;28;20121;-71
2022/12/01 04:41:13;;;;;;;56.00;9.25;;;;;;;;;;4982339;28;20165;-72
2022/12/01 04:43:39;;;;;;;45.45;8.63;;;;;;;;;;4974860;28;20039;-71
2022/12/01 04:46:05;;;;;;;82.35;10.10;;;;;;;;;;4966709;28;20471;-71
2022/12/01 04:48:30;;;;;;;124.88;11.63;;;;;;;;;;4983841;28;20062;-71
2022/12/01 04:50:56;;;;;;;77.25;10.15;;;;;;;;;;4990282;28;20034;-71
2022/12/01 04:53:21;;;;;;;62.88;9.43;;;;;;;;;;4981245;28;20386;-72
2022/12/01 04:55:47;;;;;;;56.05;8.43;;;;;;;;;;4989528;28;20121;-71
2022/12/01 04:58:12;;;;;;;57.58;9.52;;;;;;;;;;4983854;28;20045;-72
2022/12/01 05:00:38;;;;;;;59.40;9.05;;;;;;;;;;4984672;28;20038;-72
2022/12/01 05:03:03;;;;;;;49.97;8.18;;;;;;;;;;4988426;28;20041;-71
2022/12/01 05:05:29;;;;;;;36.13;8.18;;;;;;;;;;4990334;28;20057;-71
2022/12/01 05:07:55;;;;;;;122.07;10.32;;;;;;;;;;4989349;28;20399;-71
2022/12/01 05:10:21;;;;;;;104.70;10.73;;;;;;;;;;4991507;28;20073;-71
2022/12/01 05:12:46;;;;;;;45.67;8.27;;;;;;;;;;4990199;28;20110;-72
2022/12/01 05:15:12;;;;;;;40.50;8.77;;;;;;;;;;5016607;28;20039;-72
2022/12/01 05:17:37;;;;;;;54.60;8.82;;;;;;;;;;4976090;28;20525;-72
2022/12/01 05:22:48;;;;;;;91.95;8.45;;;;;;;;;;4987991;28;20097;-72
2022/12/01 05:25:13;;;;;;;153.93;11.18;;;;;;;;;;4978366;28;20043;-71
2022/12/01 05:27:39;;;;;;;101.25;10.15;;;;;;;;;;4983008;28;20065;-72
2022/12/01 05:30:05;;;;;;;183.00;12.75;;;;;;;;;;4977266;28;20038;-72
2022/12/01 05:32:31;;;;;;;137.07;11.57;;;;;;;;;;4978637;28;20097;-72
2022/12/01 05:34:56;;;;;;;219.95;13.38;;;;;;;;;;4984731;28;20454;-71
2022/12/01 05:37:22;;;;;;;112.15;9.80;;;;;;;;;;4975530;28;20034;-72
2022/12/01 05:39:47;;;;;;;212.02;13.98;;;;;;;;;;4991335;28;20030;-72
2022/12/01 05:42:12;;;;;;;128.52;11.20;;;;;;;;;;4989228;28;20043;-72
2022/12/01 05:44:38;;;;;;;105.57;10.50;;;;;;;;;;4985915;28;20517;-71
2022/12/01 05:47:03;;;;;;;78.95;8.63;;;;;;;;;;4980157;28;20042;-72
2022/12/01 05:49:28;;;;;;;131.25;11.38;;;;;;;;;;4974678;28;20051;-71
2022/12/01 05:51:54;;;;;;;135.70;11.57;;;;;;;;;;4989891;28;20080;-71
2022/12/01 05:54:19;;;;;;;69.88;9.00;;;;;;;;;;4982550;28;20035;-72
2022/12/01 05:56:44;;;;;;;60.60;8.45;;;;;;;;;;4983912;28;20035;-71
2022/12/01 05:59:10;;;;;;;90.00;9.98;;;;;;;;;;4981839;28;20459;-73
2022/12/01 06:01:35;;;;;;;89.93;9.48;;;;;;;;;;4986035;28;20089;-71
2022/12/01 06:04:01;;;;;;;84.65;9.68;;;;;;;;;;4980875;28;20035;-72
2022/12/01 06:06:26;;;;;;;137.98;10.32;;;;;;;;;;4981871;28;20497;-72
2022/12/01 06:08:51;;;;;;;115.68;9.73;;;;;;;;;;4978886;28;20043;-72
2022/12/01 06:11:17;;;;;;;97.45;9.50;;;;;;;;;;4988000;28;20038;-72
2022/12/01 06:13:42;;;;;;;132.05;10.35;;;;;;;;;;4987845;28;20031;-71
2022/12/01 06:16:07;;;;;;;55.67;7.68;;;;;;;;;;4982205;28;20427;-71
2022/12/01 06:18:35;;;;;;;63.83;8.00;;;;;;;;;;4980171;28;20043;-72
2022/12/01 06:21:02;;;;;;;71.53;8.20;;;;;;;;;;4987140;28;20502;-71
2022/12/01 06:23:27;;;;;;;62.70;7.95;;;;;;;;;;4986824;28;20046;-71
2022/12/01 06:25:52;;;;;;;146.35;10.38;;;;;;;;;;4989250;28;20500;-72
2022/12/01 06:28:18;;;;;;;221.18;14.55;;;;;;;;;;4986328;28;20038;-72
2022/12/01 06:30:43;;;;;;;144.10;10.82;;;;;;;;;;4984271;28;20509;-71
2022/12/01 06:33:09;;;;;;;66.22;8.50;;;;;;;;;;4978930;28;20051;-72
2022/12/01 06:35:35;;;;;;;91.43;9.60;;;;;;;;;;4994214;28;20041;-71
2022/12/01 06:38:01;;;;;;;130.30;9.35;;;;;;;;;;4988700;28;20056;-71
2022/12/01 06:40:26;;;;;;;165.75;11.70;;;;;;;;;;4992595;28;20478;-71
2022/12/01 06:42:51;;;;;;;90.22;9.63;;;;;;;;;;4989876;28;20026;-72
2022/12/01 06:45:17;;;;;;;54.20;7.82;;;;;;;;;;4983802;28;20065;-72
2022/12/01 06:47:42;;;;;;;96.80;9.80;;;;;;;;;;4983917;28;20047;-71
2022/12/01 06:50:09;;;;;;;73.97;8.57;;;;;;;;;;4992799;28;20069;-71
2022/12/01 06:52:35;;;;;;;118.18;9.93;;;;;;;;;;4981123;28;20042;-72
2022/12/01 06:55:02;;;;;;;113.63;9.07;;;;;;;;;;4982440;28;20038;-71
2022/12/01 06:57:28;;;;;;;58.28;7.85;;;;;;;;;;4979131;28;20042;-72
2022/12/01 06:59:53;;;;;;;47.10;7.68;;;;;;;;;;4979942;28;20038;-72
2022/12/01 07:02:19;;;;;;;71.72;8.45;;;;;;;;;;4980066;28;20047;-72
2022/12/01 07:04:44;;;;;;;60.80;8.00;;;;;;;;;;4981117;28;20391;-71
2022/12/01 07:07:11;;;;;;;63.90;7.70;;;;;;;;;;4990105;28;20039;-72
2022/12/01 07:09:36;;;;;;;55.25;7.57;;;;;;;;;;4976381;28;20042;-72
2022/12/01 07:12:01;;;;;;;94.80;8.70;;;;;;;;;;4978786;28;20034;-72
2022/12/01 07:14:27;;;;;;;99.80;8.60;;;;;;;;;;4990257;28;20475;-72
2022/12/01 07:16:53;;;;;;;63.05;8.27;;;;;;;;;;4980731;28;20618;-71
2022/12/01 07:19:18;;;;;;;174.32;10.68;;;;;;;;;;4979065;28;20042;-72
2022/12/01 07:21:43;;;;;;;94.85;8.90;;;;;;;;;;4982536;28;20039;-71
2022/12/01 07:24:11;;;;;;;83.13;8.32;;;;;;;;;;4978038;28;20043;-72
2022/12/01 07:26:37;;;;;;;60.42;8.35;;;;;;;;;;4982955;28;20023;-72
2022/12/01 07:29:02;;;;;;;74.68;8.45;;;;;;;;;;4984113;28;20394;-71
2022/12/01 07:31:27;;;;;;;63.65;7.25;;;;;;;;;;4983865;28;20069;-71
2022/12/01 07:33:53;;;;;;;63.53;8.52;;;;;;;;;;4986850;28;20038;-71
2022/12/01 07:36:18;;;;;;;62.13;7.90;;;;;;;;;;4984745;28;20038;-72
2022/12/01 07:38:44;;;;;;;53.25;7.88;;;;;;;;;;4986952;28;20125;-71
2022/12/01 07:41:14;;;;;;;139.95;10.50;;;;;;;;;;4987945;28;20085;-71
2022/12/01 07:43:40;;;;;;;64.75;8.52;;;;;;;;;;4976143;28;20038;-71
2022/12/01 07:46:07;;;;;;;142.45;9.85;;;;;;;;;;4985696;28;20121;-72
2022/12/01 07:48:33;;;;;;;136.35;9.38;;;;;;;;;;4941321;28;1175524;-71
2022/12/01 07:50:58;;;;;;;120.53;9.57;;;;;;;;;;4983769;28;20041;-72
2022/12/01 07:53:24;;;;;;;144.13;9.95;;;;;;;;;;4982599;28;20046;-74
2022/12/01 07:55:49;;;;;;;82.38;9.10;;;;;;;;;;4985140;28;20093;-73
2022/12/01 07:58:16;;;;;;;72.60;8.07;;;;;;;;;;4986083;28;20038;-71
2022/12/01 08:00:41;;;;;;;121.53;9.43;;;;;;;;;;4988191;28;20030;-72
2022/12/01 08:03:06;;;;;;;125.78;8.55;;;;;;;;;;4981605;28;20038;-73
2022/12/01 08:05:32;;;;;;;125.32;9.07;;;;;;;;;;4985279;28;20084;-72
2022/12/01 08:07:58;;;;;;;94.78;8.27;;;;;;;;;;4984221;28;20084;-73
2022/12/01 08:10:23;;;;;;;140.05;10.50;;;;;;;;;;4963317;28;20030;-72
2022/12/01 08:12:48;;;;;;;69.65;7.47;;;;;;;;;;4982053;28;20046;-72
2022/12/01 08:15:14;;;;;;;77.53;8.35;;;;;;;;;;4976240;28;20046;-73
2022/12/01 08:17:40;;;;;;;94.32;9.93;;;;;;;;;;4982939;28;20058;-72
2022/12/01 08:20:06;;;;;;;95.95;8.43;;;;;;;;;;4983499;28;20049;-72
2022/12/01 08:22:32;;;;;;;98.55;8.10;;;;;;;;;;4988458;28;20038;-72
2022/12/01 08:24:57;;;;;;;139.57;8.35;;;;;;;;;;4979276;28;20034;-72
2022/12/01 08:27:23;;;;;;;91.55;7.85;;;;;;;;;;4988176;28;20039;-72
2022/12/01 08:29:48;;;;;;;163.07;9.32;;;;;;;;;;4991276;28;20053;-72
2022/12/01 08:32:16;;;;;;;65.35;7.88;;;;;;;;;;4979343;28;20109;-72
2022/12/01 08:34:41;;;;;;;65.47;7.03;;;;;;;;;;4978812;28;20066;-71
2022/12/01 08:37:06;;;;;;;145.60;9.20;;;;;;;;;;4982577;28;20124;-72
2022/12/01 08:39:32;;;;;;;78.97;6.75;;;;;;;;;;4986332;28;20033;-72
2022/12/01 08:41:57;;;;;;;61.80;6.28;;;;;;;;;;4986179;28;20385;-72
2022/12/01 08:44:23;;;;;;;55.30;6.15;;;;;;;;;;4979888;28;20054;-73
2022/12/01 08:46:48;;;;;;;72.60;7.15;;;;;;;;;;4963831;28;20049;-71
2022/12/01 08:49:14;;;;;;;32.28;5.25;;;;;;;;;;4980291;28;20093;-73
2022/12/01 08:51:39;;;;;;;26.10;5.53;;;;;;;;;;4982358;28;20465;-72
2022/12/01 08:54:04;;;;;;;52.92;6.45;;;;;;;;;;4983176;28;20057;-71
2022/12/01 08:56:34;;;;;;;43.92;5.78;;;;;;;;;;4980554;28;20035;-72
2022/12/01 08:58:59;;;;;;;52.58;6.18;;;;;;;;;;4973863;28;20035;-72
2022/12/01 09:01:25;;;;;;;109.40;7.53;;;;;;;;;;4987338;28;21299;-72
2022/12/01 09:04:07;;;;;;;33.55;5.43;;;;;;;;;;4977419;28;20046;-72
2022/12/01 09:06:43;;;;;;;59.90;6.55;;;;;;;;;;4980456;28;20034;-72
2022/12/01 09:09:11;;;;;;;34.80;5.40;;;;;;;;;;4986957;28;20040;-72
2022/12/01 09:11:36;;;;;;;40.78;5.85;;;;;;;;;;4988467;28;20093;-72
2022/12/01 09:14:02;;;;;;;18.63;3.83;;;;;;;;;;4986295;28;20046;-72
2022/12/01 09:16:27;;;;;;;21.65;5.10;;;;;;;;;;4989750;28;20034;-72
2022/12/01 09:18:53;;;;;;;33.78;6.10;;;;;;;;;;4986322;28;20038;-73
2022/12/01 09:21:24;;;;;;;15.50;4.82;;;;;;;;;;4988435;28;20046;-72
2022/12/01 09:23:49;;;;;;;24.27;5.35;;;;;;;;;;4990272;28;20033;-72
2022/12/01 09:26:17;;;;;;;25.65;6.40;;;;;;;;;;4975009;28;20046;-72
2022/12/01 09:28:48;;;;;;;17.63;4.97;;;;;;;;;;4989511;28;20045;-73
2022/12/01 09:31:15;;;;;;;21.30;4.80;;;;;;;;;;4978096;28;20072;-73
2022/12/01 09:33:40;;;;;;;23.35;5.10;;;;;;;;;;4979058;28;20042;-72
2022/12/01 09:36:06;;;;;;;21.98;4.88;;;;;;;;;;4980725;28;20061;-73
2022/12/01 09:38:33;;;;;;;23.40;4.95;;;;;;;;;;4973319;28;20033;-72
2022/12/01 09:41:01;;;;;;;25.17;4.70;;;;;;;;;;4978781;28;20048;-72
2022/12/01 09:43:29;;;;;;;24.60;5.50;;;;;;;;;;4973130;28;20129;-72
2022/12/01 09:46:01;;;;;;;21.27;6.30;;;;;;;;;;4982790;28;20037;-72
2022/12/01 09:48:33;;;;;;;67.07;7.55;;;;;;;;;;4983426;28;20051;-72
2022/12/01 09:50:58;;;;;;;51.90;6.22;;;;;;;;;;4971235;28;20045;-72
2022/12/01 09:53:25;;;;;;;37.80;6.60;;;;;;;;;;4977461;28;20031;-72
2022/12/01 09:55:51;;;;;;;46.83;6.28;;;;;;;;;;4985804;28;20114;-72
2022/12/01 09:58:20;;;;;;;55.53;7.72;;;;;;;;;;4983437;28;20038;-73
2022/12/01 10:00:48;;;;;;;74.78;7.65;;;;;;;;;;4983495;28;20030;-72
2022/12/01 10:03:24;;;;;;;74.38;7.30;;;;;;;;;;4982255;28;20074;-73
2022/12/01 10:05:54;;;;;;;25.10;6.07;;;;;;;;;;4987282;28;20046;-73
2022/12/01 10:08:22;;;;;;;63.80;6.75;;;;;;;;;;4976512;28;20516;-72
2022/12/01 10:10:49;;;;;;;91.68;7.00;;;;;;;;;;4980544;28;20030;-72
2022/12/01 10:13:24;;;;;;;23.23;5.97;;;;;;;;;;4983754;28;20414;-72
2022/12/01 10:15:53;;;;;;;43.03;6.00;;;;;;;;;;4981393;28;20035;-74
2022/12/01 10:18:38;;;;;;;53.90;6.20;;;;;;;;;;4989454;28;20026;-73
2022/12/01 10:21:03;;;;;;;59.90;6.80;;;;;;;;;;4967422;28;20050;-74
2022/12/01 10:23:47;;;;;;;62.35;6.75;;;;;;;;;;4971496;28;20030;-73
2022/12/01 10:26:17;;;;;;;42.92;6.32;;;;;;;;;;4969964;28;20541;-72
2022/12/01 10:28:57;;;;;;;75.13;6.90;;;;;;;;;;4973087;28;20093;-72
2022/12/01 10:31:54;;;;;;;37.95;6.03;;;;;;;;;;4962048;28;20418;-72
2022/12/01 10:34:37;;;;;;;50.75;7.70;;;;;;;;;;4967263;28;20533;-72
2022/12/01 10:37:03;;;;;;;62.20;7.43;;;;;;;;;;4972099;28;20039;-72
2022/12/01 10:39:33;;;;;;;53.33;6.45;;;;;;;;;;4974285;28;20562;-72
2022/12/01 10:42:08;;;;;;;66.40;7.63;;;;;;;;;;4980917;28;20490;-72
2022/12/01 10:44:34;;;;;;;67.20;8.73;;;;;;;;;;4987515;28;20042;-74
2022/12/01 10:46:59;;;;;;;73.40;7.88;;;;;;;;;;4984057;28;20050;-74
2022/12/01 10:49:39;;;;;;;65.03;8.35;;;;;;;;;;4973934;28;20035;-73
2022/12/01 10:52:06;;;;;;;56.50;8.98;;;;;;;;;;4982756;28;20038;-72
2022/12/01 10:54:36;;;;;;;43.85;8.20;;;;;;;;;;4986051;28;20066;-72
2022/12/01 10:57:04;;;;;;;49.72;7.57;;;;;;;;;;4976892;28;20035;-73
2022/12/01 10:59:51;;;;;;;53.03;8.57;;;;;;;;;;4974649;28;20250;-72
2022/12/01 11:02:20;;;;;;;41.80;8.02;;;;;;;;;;4979273;28;20367;-72
2022/12/01 11:05:02;;;;;;;44.13;8.60;;;;;;;;;;4976755;28;20173;-72
2022/12/01 11:07:41;;;;;;;36.60;7.93;;;;;;;;;;4980282;28;20382;-73
2022/12/01 11:10:28;;;;;;;62.72;8.93;;;;;;;;;;4999856;28;20411;-73
2022/12/01 11:13:20;;;;;;;47.00;8.48;;;;;;;;;;4981515;28;20026;-73
2022/12/01 11:15:51;;;;;;;46.50;9.95;;;;;;;;;;4987832;28;20041;-73
2022/12/01 11:18:37;;;;;;;57.40;8.35;;;;;;;;;;4977889;28;20027;-73
2022/12/01 11:21:14;;;;;;;46.10;8.45;;;;;;;;;;4998717;28;20066;-73
2022/12/01 11:23:50;;;;;;;58.47;8.23;;;;;;;;;;4980832;28;20490;-72
2022/12/01 11:26:25;;;;;;;58.33;8.07;;;;;;;;;;4976887;28;20042;-72
2022/12/01 11:28:51;;;;;;;52.60;7.63;;;;;;;;;;4987560;28;20474;-73
2022/12/01 11:31:16;;;;;;;47.28;7.80;;;;;;;;;;4989347;28;20090;-73
2022/12/01 11:33:46;;;;;;;35.55;6.97;;;;;;;;;;4985180;28;20031;-73
2022/12/01 11:36:24;;;;;;;48.28;7.80;;;;;;;;;;4981672;28;20037;-73
2022/12/01 11:38:54;;;;;;;40.78;7.35;;;;;;;;;;4976279;28;20042;-72
2022/12/01 11:41:44;;;;;;;34.25;7.28;;;;;;;;;;4981655;28;20042;-73
2022/12/01 11:44:19;;;;;;;46.05;6.93;;;;;;;;;;4983331;28;20062;-73
2022/12/01 11:46:45;;;;;;;53.28;7.30;;;;;;;;;;4984275;28;20502;-72
2022/12/01 11:49:20;;;;;;;29.45;6.90;;;;;;;;;;4983294;28;20050;-73
2022/12/01 11:51:46;;;;;;;30.30;7.05;;;;;;;;;;4981918;28;20058;-72
2022/12/01 11:54:16;;;;;;;29.75;6.57;;;;;;;;;;4970224;28;20495;-73
2022/12/01 11:56:43;;;;;;;34.03;6.32;;;;;;;;;;4981938;28;20471;-72
2022/12/01 11:59:17;;;;;;;22.83;7.18;;;;;;;;;;4985168;28;20034;-73
2022/12/01 12:02:01;;;;;;;;;;;;;;;;;;4983742;28;20125;-73
2022/12/01 12:05:11;;;;;;;25.17;6.53;;;;;;;;;;4984721;28;19922;-72
2022/12/01 12:07:52;;;;;;;25.70;7.93;;;;;;;;;;4952080;28;20054;-72
2022/12/01 12:10:21;;;;;;;38.10;7.78;;;;;;;;;;4977979;28;20034;-73
2022/12/01 12:13:04;;;;;;;41.28;8.43;;;;;;;;;;4987181;28;20125;-72
2022/12/01 12:15:46;;;;;;;28.05;7.43;;;;;;;;;;4991027;28;20445;-72
2022/12/01 12:18:25;;;;;;;33.28;6.93;;;;;;;;;;4985181;28;20049;-72
2022/12/01 12:21:03;;;;;;;26.50;7.82;;;;;;;;;;4973365;28;20081;-73
2022/12/01 12:23:35;;;;;;;24.40;7.25;;;;;;;;;;4978942;28;20125;-73
2022/12/01 12:26:19;;;;;;;24.17;5.63;;;;;;;;;;4979396;28;20065;-73
2022/12/01 12:28:44;;;;;;;25.73;7.07;;;;;;;;;;4980145;28;20035;-73
2022/12/01 12:31:48;;;;;;;23.83;7.63;;;;;;;;;;4975382;28;20045;-73
2022/12/01 12:34:28;;;;;;;24.60;8.25;;;;;;;;;;4982505;28;20153;-73
2022/12/01 12:37:13;;;;;;;22.00;6.22;;;;;;;;;;4988031;28;20109;-73
2022/12/01 12:40:18;;;;;;;28.00;7.07;;;;;;;;;;4954162;28;20035;-72
2022/12/01 12:43:02;;;;;;;23.38;5.68;;;;;;;;;;4980841;28;20549;-72
2022/12/01 12:45:46;;;;;;;20.17;6.88;;;;;;;;;;4978332;28;20041;-73
2022/12/01 12:48:46;;;;;;;27.17;7.63;;;;;;;;;;4975180;28;20061;-73
2022/12/01 12:51:23;;;;;;;40.15;7.00;;;;;;;;;;4977044;28;20050;-73
2022/12/01 12:53:53;;;;;;;43.33;8.20;;;;;;;;;;4969944;28;20105;-72
2022/12/01 12:56:21;;;;;;;32.50;7.70;;;;;;;;;;4973068;28;20034;-73
2022/12/01 12:59:00;;;;;;;33.50;7.60;;;;;;;;;;4971331;28;20035;-72
2022/12/01 13:01:31;;;;;;;34.22;8.77;;;;;;;;;;4980367;28;20046;-72
2022/12/01 13:04:12;;;;;;;26.27;7.95;;;;;;;;;;4970797;28;20494;-72
2022/12/01 13:06:43;;;;;;;23.45;8.10;;;;;;;;;;4978964;28;20495;-72
2022/12/01 13:09:46;;;;;;;26.08;8.23;;;;;;;;;;4975378;28;20046;-74
2022/12/01 13:12:18;;;;;;;30.50;8.13;;;;;;;;;;4936330;28;20051;-74
2022/12/01 13:14:50;;;;;;;36.08;8.15;;;;;;;;;;4974494;28;20544;-73
2022/12/01 13:17:26;;;;;;;28.38;7.72;;;;;;;;;;4977912;28;20136;-72
2022/12/01 13:19:52;;;;;;;35.85;8.05;;;;;;;;;;4978987;28;20026;-72
2022/12/01 13:22:20;;;;;;;26.92;7.90;;;;;;;;;;4975345;28;20117;-73
2022/12/01 13:24:46;;;;;;;34.75;7.85;;;;;;;;;;4974650;28;20383;-73
2022/12/01 13:27:21;;;;;;;33.00;8.68;;;;;;;;;;4979750;28;20038;-73
2022/12/01 13:29:49;;;;;;;32.55;8.02;;;;;;;;;;4977483;28;20077;-72
2022/12/01 13:32:34;;;;;;;26.17;8.52;;;;;;;;;;4981357;28;20030;-72
2022/12/01 13:35:04;;;;;;;22.13;7.90;;;;;;;;;;4982280;28;20030;-72
2022/12/01 13:37:35;;;;;;;32.28;8.05;;;;;;;;;;4976787;28;20054;-73
2022/12/01 13:40:24;;;;;;;31.20;8.00;;;;;;;;;;4977150;28;20043;-72
2022/12/01 13:42:59;;;;;;;20.30;7.65;;;;;;;;;;5014282;28;20064;-72
2022/12/01 13:45:28;;;;;;;25.10;7.63;;;;;;;;;;4978549;28;20045;-73
2022/12/01 13:47:55;;;;;;;23.13;8.60;;;;;;;;;;4979199;28;20042;-72
2022/12/01 13:50:41;;;;;;;27.08;8.38;;;;;;;;;;4978645;28;20042;-72
2022/12/01 13:53:13;;;;;;;19.90;7.97;;;;;;;;;;4971601;28;20121;-73
2022/12/01 13:55:59;;;;;;;27.88;9.15;;;;;;;;;;4985136;28;20157;-72
2022/12/01 13:58:33;;;;;;;22.27;8.25;;;;;;;;;;4983520;28;20475;-72
2022/12/01 14:01:20;;;;;;;22.33;7.25;;;;;;;;;;4982782;28;20041;-72
2022/12/01 14:04:02;;;;;;;21.27;6.65;;;;;;;;;;4977581;28;20082;-72
2022/12/01 14:06:27;;;;;;;18.10;7.95;;;;;;;;;;4998899;28;20188;-72
2022/12/01 14:08:59;;;;;;;25.38;8.13;;;;;;;;;;4975175;28;20162;-73
2022/12/01 14:11:27;;;;;;;25.85;8.00;;;;;;;;;;4975584;28;20047;-72
2022/12/01 14:14:08;;;;;;;21.45;8.43;;;;;;;;;;4980121;28;20023;-72
2022/12/01 14:16:49;;;;;;;33.97;9.45;;;;;;;;;;4982756;28;20096;-72
2022/12/01 14:19:33;;;;;;;27.95;8.50;;;;;;;;;;5003355;28;20034;-73
2022/12/01 14:22:00;;;;;;;27.88;8.18;;;;;;;;;;4984411;28;20050;-72
2022/12/01 14:24:37;;;;;;;21.25;8.63;;;;;;;;;;4981338;28;20042;-72
2022/12/01 14:27:03;;;;;;;43.58;18.65;;;;;;;;;;4975531;28;20483;-72
2022/12/01 14:29:33;;;;;;;31.73;10.23;;;;;;;;;;4990208;28;20022;-72
2022/12/01 14:32:04;;;;;;;28.05;7.40;;;;;;;;;;4987297;28;20042;-72
2022/12/01 14:34:34;;;;;;;29.48;11.90;;;;;;;;;;4977892;28;20399;-72
2022/12/01 14:37:06;;;;;;;29.02;7.25;;;;;;;;;;4982269;28;20125;-72
2022/12/01 14:39:37;;;;;;;36.53;7.05;;;;;;;;;;4981452;28;20047;-72
2022/12/01 14:42:09;;;;;;;38.72;7.88;;;;;;;;;;4977333;28;20478;-72
2022/12/01 14:44:43;;;;;;;53.05;7.20;;;;;;;;;;4983660;28;20034;-72
2022/12/01 14:47:09;;;;;;;39.95;6.18;;;;;;;;;;4983587;28;20054;-73
2022/12/01 14:49:58;;;;;;;35.20;7.15;;;;;;;;;;4985010;28;20716;-72
2022/12/01 14:52:27;;;;;;;35.10;7.07;;;;;;;;;;4993805;28;20106;-72
2022/12/01 14:55:02;;;;;;;30.60;6.60;;;;;;;;;;4985167;28;20041;-72